Portada
METAR-TAF:

METAR-TAF

Aeroports :

Ghadames, Líbia

latitud: 30-08N, longitud: 009-30E, altitud: 346 m

METAR: manca

Hora: 20:22 (18:22 UTC)

Pronòstic

L'informe es va fer fa 1 hora i 22 minuts, a les 17:00 UTC
Pronòstic vàlid del 25 a les 18 UTC al 26 a les 18 UTC
Vent 2 kt amb direcció variable
Visibilitat 10 km o més
sense núvols per sota de 1500 mi sense presència de cumulonimbus.
Evolucionant progressivament
l' 25 a les 20 UTC al 25 a les 22 UTC
Vent 10 kt del Nord/Nord-Est
Evolucionant progressivament
l' 26 a les 00 UTC al 26 a les 02 UTC
Vent 10 kt del Est
Visibilitat: 8000 m
Evolucionant progressivament
l' 26 a les 14 UTC al 26 a les 16 UTC
Vent 2 kt amb direcció variable

TAF: HLTD 251700Z 2518/2618 VRB02KT CAVOK BECMG 2520/2522 03010KT BECMG 2600/2602 09010KT 8000 NSC BECMG 2614/2616 VRB02KT

Observacions i pronòstics meteorològics de més de 4000 aeroports (METAR i TAF).

Les estacions disponibles són els punts grocs i vermells al mapa.

Posi el ratolí al punt desitjat per veure el nom de l'estació.

Feu clic per veure les observacions i els pronòstics meteorològics.

Per canviar el mapa: feu clic els botons verds amb una creu de color negre per apropar; al botó verd amb un guió per allunyar la imatge; o en les fletxes verdes per a mapes adjacents.


METAR-TAF: